<?xml version="1.0" encoding="UTF-8" standalone="no" ?>
<gpx xmlns="http://www.topografix.com/GPX/1/1" xmlns:xsi="http://www.w3.org/2001/XMLSchema-instance" xsi:schemaLocation="http://www.topografix.com/GPX/1/1 http://www.topografix.com/GPX/1/1/gpx.xsd" version="1.1" creator="VisuGPX - https://www.visugpx.com">
  <metadata>
    <name>Col Fromage</name>
    <desc><![CDATA[Au départ de Ceillac, aller-retour au Col Fromage.]]></desc>
  </metadata>
  <trk>
    <name><![CDATA[Col Fromage_1]]></name>
    <trkseg>
      <trkpt lat="44.66874" lon="6.77772">
        <ele>1648.8</ele>
        <time>2021-03-15T08:17:45Z</time>
      </trkpt>
      <trkpt lat="44.6686" lon="6.7779">
        <ele>1649.3</ele>
        <time>2021-03-15T08:18:12Z</time>
      </trkpt>
      <trkpt lat="44.66844" lon="6.77829">
        <ele>1650.8</ele>
        <time>2021-03-15T08:18:42Z</time>
      </trkpt>
      <trkpt lat="44.66879" lon="6.77844">
        <ele>1651.5</ele>
        <time>2021-03-15T08:19:13Z</time>
      </trkpt>
      <trkpt lat="44.66895" lon="6.7786">
        <ele>1651.8</ele>
        <time>2021-03-15T08:19:44Z</time>
      </trkpt>
      <trkpt lat="44.66913" lon="6.77899">
        <ele>1652</ele>
        <time>2021-03-15T08:20:14Z</time>
      </trkpt>
      <trkpt lat="44.66938" lon="6.77927">
        <ele>1655.2</ele>
        <time>2021-03-15T08:20:44Z</time>
      </trkpt>
      <trkpt lat="44.66955" lon="6.77959">
        <ele>1659.4</ele>
        <time>2021-03-15T08:21:14Z</time>
      </trkpt>
      <trkpt lat="44.66972" lon="6.77985">
        <ele>1662</ele>
        <time>2021-03-15T08:21:45Z</time>
      </trkpt>
      <trkpt lat="44.66989" lon="6.78019">
        <ele>1664.1</ele>
        <time>2021-03-15T08:22:16Z</time>
      </trkpt>
      <trkpt lat="44.67008" lon="6.78046">
        <ele>1667.1</ele>
        <time>2021-03-15T08:22:46Z</time>
      </trkpt>
      <trkpt lat="44.67024" lon="6.78074">
        <ele>1672.5</ele>
        <time>2021-03-15T08:23:17Z</time>
      </trkpt>
      <trkpt lat="44.67042" lon="6.78103">
        <ele>1677.5</ele>
        <time>2021-03-15T08:23:48Z</time>
      </trkpt>
      <trkpt lat="44.67058" lon="6.78129">
        <ele>1680.3</ele>
        <time>2021-03-15T08:24:19Z</time>
      </trkpt>
      <trkpt lat="44.67073" lon="6.78161">
        <ele>1681.1</ele>
        <time>2021-03-15T08:24:50Z</time>
      </trkpt>
      <trkpt lat="44.67084" lon="6.78199">
        <ele>1683.1</ele>
        <time>2021-03-15T08:25:21Z</time>
      </trkpt>
      <trkpt lat="44.67092" lon="6.7823">
        <ele>1687.3</ele>
        <time>2021-03-15T08:25:51Z</time>
      </trkpt>
      <trkpt lat="44.67107" lon="6.78263">
        <ele>1694.2</ele>
        <time>2021-03-15T08:26:22Z</time>
      </trkpt>
      <trkpt lat="44.67116" lon="6.78296">
        <ele>1696.8</ele>
        <time>2021-03-15T08:26:52Z</time>
      </trkpt>
      <trkpt lat="44.67134" lon="6.78327">
        <ele>1702</ele>
        <time>2021-03-15T08:27:22Z</time>
      </trkpt>
      <trkpt lat="44.67144" lon="6.78337">
        <ele>1704.9</ele>
        <time>2021-03-15T08:27:53Z</time>
      </trkpt>
      <trkpt lat="44.67138" lon="6.7831">
        <ele>1704.5</ele>
        <time>2021-03-15T08:28:24Z</time>
      </trkpt>
      <trkpt lat="44.67132" lon="6.78298">
        <ele>1702.9</ele>
        <time>2021-03-15T08:28:54Z</time>
      </trkpt>
      <trkpt lat="44.67154" lon="6.78307">
        <ele>1710.7</ele>
        <time>2021-03-15T08:29:24Z</time>
      </trkpt>
      <trkpt lat="44.6717" lon="6.78327">
        <ele>1715.2</ele>
        <time>2021-03-15T08:29:54Z</time>
      </trkpt>
      <trkpt lat="44.67181" lon="6.78348">
        <ele>1717.3</ele>
        <time>2021-03-15T08:30:25Z</time>
      </trkpt>
      <trkpt lat="44.67193" lon="6.7836">
        <ele>1720.7</ele>
        <time>2021-03-15T08:30:55Z</time>
      </trkpt>
      <trkpt lat="44.67211" lon="6.78372">
        <ele>1726.5</ele>
        <time>2021-03-15T08:31:26Z</time>
      </trkpt>
      <trkpt lat="44.67227" lon="6.78381">
        <ele>1731.9</ele>
        <time>2021-03-15T08:31:56Z</time>
      </trkpt>
      <trkpt lat="44.67247" lon="6.78391">
        <ele>1738.5</ele>
        <time>2021-03-15T08:32:27Z</time>
      </trkpt>
      <trkpt lat="44.67255" lon="6.78421">
        <ele>1735.8</ele>
        <time>2021-03-15T08:32:58Z</time>
      </trkpt>
      <trkpt lat="44.67272" lon="6.78442">
        <ele>1741.1</ele>
        <time>2021-03-15T08:33:29Z</time>
      </trkpt>
      <trkpt lat="44.6727" lon="6.78453">
        <ele>1738.5</ele>
        <time>2021-03-15T08:34:00Z</time>
      </trkpt>
      <trkpt lat="44.6727" lon="6.78453">
        <ele>1738.5</ele>
        <time>2021-03-15T08:34:31Z</time>
      </trkpt>
      <trkpt lat="44.6727" lon="6.78454">
        <ele>1738.3</ele>
        <time>2021-03-15T08:35:01Z</time>
      </trkpt>
      <trkpt lat="44.67269" lon="6.78456">
        <ele>1737.5</ele>
        <time>2021-03-15T08:35:32Z</time>
      </trkpt>
      <trkpt lat="44.67268" lon="6.78455">
        <ele>1737.2</ele>
        <time>2021-03-15T08:36:03Z</time>
      </trkpt>
      <trkpt lat="44.67269" lon="6.78455">
        <ele>1737.7</ele>
        <time>2021-03-15T08:36:33Z</time>
      </trkpt>
      <trkpt lat="44.67271" lon="6.78458">
        <ele>1738.3</ele>
        <time>2021-03-15T08:37:04Z</time>
      </trkpt>
      <trkpt lat="44.67271" lon="6.78458">
        <ele>1738.3</ele>
        <time>2021-03-15T08:37:35Z</time>
      </trkpt>
      <trkpt lat="44.67273" lon="6.78455">
        <ele>1739.7</ele>
        <time>2021-03-15T08:38:05Z</time>
      </trkpt>
      <trkpt lat="44.67278" lon="6.78482">
        <ele>1738.4</ele>
        <time>2021-03-15T08:38:36Z</time>
      </trkpt>
      <trkpt lat="44.67289" lon="6.78504">
        <ele>1741.3</ele>
        <time>2021-03-15T08:39:07Z</time>
      </trkpt>
      <trkpt lat="44.67301" lon="6.7853">
        <ele>1745.6</ele>
        <time>2021-03-15T08:39:37Z</time>
      </trkpt>
      <trkpt lat="44.67309" lon="6.78557">
        <ele>1747.5</ele>
        <time>2021-03-15T08:40:08Z</time>
      </trkpt>
      <trkpt lat="44.67327" lon="6.78564">
        <ele>1755.7</ele>
        <time>2021-03-15T08:40:39Z</time>
      </trkpt>
      <trkpt lat="44.67342" lon="6.78573">
        <ele>1762.2</ele>
        <time>2021-03-15T08:41:10Z</time>
      </trkpt>
      <trkpt lat="44.67335" lon="6.78567">
        <ele>1759.4</ele>
        <time>2021-03-15T08:41:40Z</time>
      </trkpt>
      <trkpt lat="44.67355" lon="6.78569">
        <ele>1768.9</ele>
        <time>2021-03-15T08:42:10Z</time>
      </trkpt>
      <trkpt lat="44.67367" lon="6.78591">
        <ele>1772.1</ele>
        <time>2021-03-15T08:42:41Z</time>
      </trkpt>
      <trkpt lat="44.6736" lon="6.78619">
        <ele>1764.9</ele>
        <time>2021-03-15T08:43:12Z</time>
      </trkpt>
      <trkpt lat="44.67363" lon="6.7864">
        <ele>1763.6</ele>
        <time>2021-03-15T08:43:42Z</time>
      </trkpt>
      <trkpt lat="44.6737" lon="6.78634">
        <ele>1768</ele>
        <time>2021-03-15T08:44:13Z</time>
      </trkpt>
      <trkpt lat="44.67371" lon="6.78639">
        <ele>1767.9</ele>
        <time>2021-03-15T08:44:44Z</time>
      </trkpt>
      <trkpt lat="44.67371" lon="6.78639">
        <ele>1767.9</ele>
        <time>2021-03-15T08:45:15Z</time>
      </trkpt>
      <trkpt lat="44.67371" lon="6.78641">
        <ele>1767.6</ele>
        <time>2021-03-15T08:45:45Z</time>
      </trkpt>
      <trkpt lat="44.67373" lon="6.78643">
        <ele>1768.4</ele>
        <time>2021-03-15T08:46:15Z</time>
      </trkpt>
      <trkpt lat="44.67373" lon="6.78643">
        <ele>1768.4</ele>
        <time>2021-03-15T08:46:45Z</time>
      </trkpt>
      <trkpt lat="44.67373" lon="6.78643">
        <ele>1768.4</ele>
        <time>2021-03-15T08:47:15Z</time>
      </trkpt>
      <trkpt lat="44.67382" lon="6.78658">
        <ele>1771.3</ele>
        <time>2021-03-15T08:47:46Z</time>
      </trkpt>
      <trkpt lat="44.67406" lon="6.78674">
        <ele>1781.9</ele>
        <time>2021-03-15T08:48:16Z</time>
      </trkpt>
      <trkpt lat="44.67424" lon="6.78695">
        <ele>1786.8</ele>
        <time>2021-03-15T08:48:47Z</time>
      </trkpt>
      <trkpt lat="44.67443" lon="6.7872">
        <ele>1790.7</ele>
        <time>2021-03-15T08:49:18Z</time>
      </trkpt>
      <trkpt lat="44.67462" lon="6.78745">
        <ele>1795.1</ele>
        <time>2021-03-15T08:49:49Z</time>
      </trkpt>
      <trkpt lat="44.67465" lon="6.7879">
        <ele>1792</ele>
        <time>2021-03-15T08:50:20Z</time>
      </trkpt>
      <trkpt lat="44.67467" lon="6.7883">
        <ele>1789.5</ele>
        <time>2021-03-15T08:50:50Z</time>
      </trkpt>
      <trkpt lat="44.67474" lon="6.78867">
        <ele>1790.8</ele>
        <time>2021-03-15T08:51:21Z</time>
      </trkpt>
      <trkpt lat="44.67491" lon="6.78893">
        <ele>1798</ele>
        <time>2021-03-15T08:51:51Z</time>
      </trkpt>
      <trkpt lat="44.67514" lon="6.78913">
        <ele>1808</ele>
        <time>2021-03-15T08:52:22Z</time>
      </trkpt>
      <trkpt lat="44.67526" lon="6.7895">
        <ele>1814.3</ele>
        <time>2021-03-15T08:52:53Z</time>
      </trkpt>
      <trkpt lat="44.67529" lon="6.78985">
        <ele>1816.5</ele>
        <time>2021-03-15T08:53:23Z</time>
      </trkpt>
      <trkpt lat="44.6752" lon="6.79018">
        <ele>1813.3</ele>
        <time>2021-03-15T08:53:54Z</time>
      </trkpt>
      <trkpt lat="44.67533" lon="6.79053">
        <ele>1818.8</ele>
        <time>2021-03-15T08:54:25Z</time>
      </trkpt>
      <trkpt lat="44.67551" lon="6.79087">
        <ele>1826.1</ele>
        <time>2021-03-15T08:54:55Z</time>
      </trkpt>
      <trkpt lat="44.67551" lon="6.79089">
        <ele>1826</ele>
        <time>2021-03-15T08:55:26Z</time>
      </trkpt>
      <trkpt lat="44.67551" lon="6.79119">
        <ele>1825.3</ele>
        <time>2021-03-15T08:55:57Z</time>
      </trkpt>
      <trkpt lat="44.67544" lon="6.7916">
        <ele>1821.2</ele>
        <time>2021-03-15T08:56:28Z</time>
      </trkpt>
      <trkpt lat="44.6754" lon="6.79203">
        <ele>1817.6</ele>
        <time>2021-03-15T08:56:58Z</time>
      </trkpt>
      <trkpt lat="44.67538" lon="6.79252">
        <ele>1814.4</ele>
        <time>2021-03-15T08:57:29Z</time>
      </trkpt>
      <trkpt lat="44.67555" lon="6.79286">
        <ele>1815.9</ele>
        <time>2021-03-15T08:58:00Z</time>
      </trkpt>
      <trkpt lat="44.67574" lon="6.79324">
        <ele>1817.2</ele>
        <time>2021-03-15T08:58:31Z</time>
      </trkpt>
      <trkpt lat="44.67592" lon="6.79358">
        <ele>1820.4</ele>
        <time>2021-03-15T08:59:02Z</time>
      </trkpt>
      <trkpt lat="44.67613" lon="6.79397">
        <ele>1824.9</ele>
        <time>2021-03-15T08:59:33Z</time>
      </trkpt>
      <trkpt lat="44.67631" lon="6.79435">
        <ele>1828</ele>
        <time>2021-03-15T09:00:04Z</time>
      </trkpt>
      <trkpt lat="44.67643" lon="6.79472">
        <ele>1829.1</ele>
        <time>2021-03-15T09:00:34Z</time>
      </trkpt>
      <trkpt lat="44.67648" lon="6.79494">
        <ele>1829</ele>
        <time>2021-03-15T09:01:04Z</time>
      </trkpt>
      <trkpt lat="44.67656" lon="6.79535">
        <ele>1831.3</ele>
        <time>2021-03-15T09:01:35Z</time>
      </trkpt>
      <trkpt lat="44.67659" lon="6.79581">
        <ele>1832.7</ele>
        <time>2021-03-15T09:02:06Z</time>
      </trkpt>
      <trkpt lat="44.6767" lon="6.79604">
        <ele>1836.9</ele>
        <time>2021-03-15T09:02:36Z</time>
      </trkpt>
      <trkpt lat="44.6767" lon="6.79604">
        <ele>1836.9</ele>
        <time>2021-03-15T09:03:07Z</time>
      </trkpt>
      <trkpt lat="44.67669" lon="6.79599">
        <ele>1836.6</ele>
        <time>2021-03-15T09:03:38Z</time>
      </trkpt>
      <trkpt lat="44.67671" lon="6.79604">
        <ele>1837.3</ele>
        <time>2021-03-15T09:04:09Z</time>
      </trkpt>
      <trkpt lat="44.67671" lon="6.79604">
        <ele>1837.3</ele>
        <time>2021-03-15T09:04:40Z</time>
      </trkpt>
      <trkpt lat="44.67667" lon="6.79602">
        <ele>1835.9</ele>
        <time>2021-03-15T09:05:11Z</time>
      </trkpt>
      <trkpt lat="44.67667" lon="6.79602">
        <ele>1835.9</ele>
        <time>2021-03-15T09:05:41Z</time>
      </trkpt>
      <trkpt lat="44.67667" lon="6.79602">
        <ele>1835.9</ele>
        <time>2021-03-15T09:06:11Z</time>
      </trkpt>
      <trkpt lat="44.67667" lon="6.79602">
        <ele>1835.9</ele>
        <time>2021-03-15T09:06:42Z</time>
      </trkpt>
      <trkpt lat="44.67667" lon="6.79602">
        <ele>1835.9</ele>
        <time>2021-03-15T09:07:12Z</time>
      </trkpt>
      <trkpt lat="44.67672" lon="6.79604">
        <ele>1837.7</ele>
        <time>2021-03-15T09:07:43Z</time>
      </trkpt>
      <trkpt lat="44.67671" lon="6.79604">
        <ele>1837.3</ele>
        <time>2021-03-15T09:08:14Z</time>
      </trkpt>
      <trkpt lat="44.67671" lon="6.79604">
        <ele>1837.3</ele>
        <time>2021-03-15T09:08:44Z</time>
      </trkpt>
      <trkpt lat="44.6767" lon="6.79604">
        <ele>1836.9</ele>
        <time>2021-03-15T09:09:14Z</time>
      </trkpt>
      <trkpt lat="44.6767" lon="6.79604">
        <ele>1836.9</ele>
        <time>2021-03-15T09:09:45Z</time>
      </trkpt>
      <trkpt lat="44.6767" lon="6.79604">
        <ele>1836.9</ele>
        <time>2021-03-15T09:10:15Z</time>
      </trkpt>
      <trkpt lat="44.6767" lon="6.79604">
        <ele>1836.9</ele>
        <time>2021-03-15T09:10:46Z</time>
      </trkpt>
      <trkpt lat="44.6767" lon="6.79604">
        <ele>1836.9</ele>
        <time>2021-03-15T09:11:16Z</time>
      </trkpt>
      <trkpt lat="44.67672" lon="6.796">
        <ele>1837.7</ele>
        <time>2021-03-15T09:11:47Z</time>
      </trkpt>
      <trkpt lat="44.67685" lon="6.79603">
        <ele>1842.3</ele>
        <time>2021-03-15T09:12:18Z</time>
      </trkpt>
      <trkpt lat="44.67695" lon="6.79624">
        <ele>1845.5</ele>
        <time>2021-03-15T09:12:48Z</time>
      </trkpt>
      <trkpt lat="44.67707" lon="6.79642">
        <ele>1849.5</ele>
        <time>2021-03-15T09:13:19Z</time>
      </trkpt>
      <trkpt lat="44.67717" lon="6.79663">
        <ele>1852.6</ele>
        <time>2021-03-15T09:13:49Z</time>
      </trkpt>
      <trkpt lat="44.67728" lon="6.79653">
        <ele>1856.6</ele>
        <time>2021-03-15T09:14:20Z</time>
      </trkpt>
      <trkpt lat="44.67737" lon="6.79674">
        <ele>1858.9</ele>
        <time>2021-03-15T09:14:51Z</time>
      </trkpt>
      <trkpt lat="44.67749" lon="6.79692">
        <ele>1861.5</ele>
        <time>2021-03-15T09:15:21Z</time>
      </trkpt>
      <trkpt lat="44.67761" lon="6.79711">
        <ele>1864.4</ele>
        <time>2021-03-15T09:15:52Z</time>
      </trkpt>
      <trkpt lat="44.67778" lon="6.79723">
        <ele>1869.6</ele>
        <time>2021-03-15T09:16:22Z</time>
      </trkpt>
      <trkpt lat="44.6779" lon="6.79742">
        <ele>1872.2</ele>
        <time>2021-03-15T09:16:53Z</time>
      </trkpt>
      <trkpt lat="44.67802" lon="6.79764">
        <ele>1874.6</ele>
        <time>2021-03-15T09:17:24Z</time>
      </trkpt>
      <trkpt lat="44.67812" lon="6.79753">
        <ele>1879.1</ele>
        <time>2021-03-15T09:17:54Z</time>
      </trkpt>
      <trkpt lat="44.67819" lon="6.79737">
        <ele>1883.2</ele>
        <time>2021-03-15T09:18:24Z</time>
      </trkpt>
      <trkpt lat="44.67829" lon="6.79741">
        <ele>1886.4</ele>
        <time>2021-03-15T09:18:55Z</time>
      </trkpt>
      <trkpt lat="44.67845" lon="6.79758">
        <ele>1893.6</ele>
        <time>2021-03-15T09:19:26Z</time>
      </trkpt>
      <trkpt lat="44.67855" lon="6.79772">
        <ele>1899.3</ele>
        <time>2021-03-15T09:19:57Z</time>
      </trkpt>
      <trkpt lat="44.67859" lon="6.79788">
        <ele>1901.4</ele>
        <time>2021-03-15T09:20:28Z</time>
      </trkpt>
      <trkpt lat="44.67865" lon="6.79811">
        <ele>1904.8</ele>
        <time>2021-03-15T09:20:58Z</time>
      </trkpt>
      <trkpt lat="44.6787" lon="6.79831">
        <ele>1908</ele>
        <time>2021-03-15T09:21:29Z</time>
      </trkpt>
      <trkpt lat="44.67877" lon="6.79851">
        <ele>1913.1</ele>
        <time>2021-03-15T09:21:59Z</time>
      </trkpt>
      <trkpt lat="44.67879" lon="6.79873">
        <ele>1914.9</ele>
        <time>2021-03-15T09:22:29Z</time>
      </trkpt>
      <trkpt lat="44.67882" lon="6.79896">
        <ele>1917.5</ele>
        <time>2021-03-15T09:23:00Z</time>
      </trkpt>
      <trkpt lat="44.67885" lon="6.79915">
        <ele>1920</ele>
        <time>2021-03-15T09:23:31Z</time>
      </trkpt>
      <trkpt lat="44.67889" lon="6.79933">
        <ele>1922.8</ele>
        <time>2021-03-15T09:24:01Z</time>
      </trkpt>
      <trkpt lat="44.67891" lon="6.79914">
        <ele>1924.5</ele>
        <time>2021-03-15T09:24:31Z</time>
      </trkpt>
      <trkpt lat="44.67899" lon="6.7991">
        <ele>1930.5</ele>
        <time>2021-03-15T09:25:02Z</time>
      </trkpt>
      <trkpt lat="44.67902" lon="6.79931">
        <ele>1932.6</ele>
        <time>2021-03-15T09:25:32Z</time>
      </trkpt>
      <trkpt lat="44.67907" lon="6.79946">
        <ele>1936</ele>
        <time>2021-03-15T09:26:03Z</time>
      </trkpt>
      <trkpt lat="44.67907" lon="6.79966">
        <ele>1935.6</ele>
        <time>2021-03-15T09:26:34Z</time>
      </trkpt>
      <trkpt lat="44.67912" lon="6.79995">
        <ele>1938.6</ele>
        <time>2021-03-15T09:27:05Z</time>
      </trkpt>
      <trkpt lat="44.67917" lon="6.80022">
        <ele>1941.2</ele>
        <time>2021-03-15T09:27:35Z</time>
      </trkpt>
      <trkpt lat="44.67925" lon="6.80047">
        <ele>1945.2</ele>
        <time>2021-03-15T09:28:06Z</time>
      </trkpt>
      <trkpt lat="44.67927" lon="6.80074">
        <ele>1945.2</ele>
        <time>2021-03-15T09:28:37Z</time>
      </trkpt>
      <trkpt lat="44.67929" lon="6.80092">
        <ele>1945</ele>
        <time>2021-03-15T09:29:07Z</time>
      </trkpt>
      <trkpt lat="44.67931" lon="6.80099">
        <ele>1945.4</ele>
        <time>2021-03-15T09:29:38Z</time>
      </trkpt>
      <trkpt lat="44.67933" lon="6.80108">
        <ele>1945.7</ele>
        <time>2021-03-15T09:30:09Z</time>
      </trkpt>
      <trkpt lat="44.67939" lon="6.80089">
        <ele>1951.8</ele>
        <time>2021-03-15T09:30:40Z</time>
      </trkpt>
      <trkpt lat="44.67944" lon="6.80066">
        <ele>1956.6</ele>
        <time>2021-03-15T09:31:10Z</time>
      </trkpt>
      <trkpt lat="44.67949" lon="6.80049">
        <ele>1960.8</ele>
        <time>2021-03-15T09:31:41Z</time>
      </trkpt>
      <trkpt lat="44.67953" lon="6.80058">
        <ele>1962.9</ele>
        <time>2021-03-15T09:32:11Z</time>
      </trkpt>
      <trkpt lat="44.67963" lon="6.80076">
        <ele>1968.4</ele>
        <time>2021-03-15T09:32:41Z</time>
      </trkpt>
      <trkpt lat="44.67969" lon="6.80074">
        <ele>1972.4</ele>
        <time>2021-03-15T09:33:12Z</time>
      </trkpt>
      <trkpt lat="44.6798" lon="6.80087">
        <ele>1978.6</ele>
        <time>2021-03-15T09:33:43Z</time>
      </trkpt>
      <trkpt lat="44.67994" lon="6.80093">
        <ele>1987.1</ele>
        <time>2021-03-15T09:34:14Z</time>
      </trkpt>
      <trkpt lat="44.68005" lon="6.80102">
        <ele>1992.3</ele>
        <time>2021-03-15T09:34:44Z</time>
      </trkpt>
      <trkpt lat="44.68018" lon="6.8011">
        <ele>1997.4</ele>
        <time>2021-03-15T09:35:14Z</time>
      </trkpt>
      <trkpt lat="44.68031" lon="6.80115">
        <ele>2002.8</ele>
        <time>2021-03-15T09:35:45Z</time>
      </trkpt>
      <trkpt lat="44.68035" lon="6.80121">
        <ele>2003.9</ele>
        <time>2021-03-15T09:36:16Z</time>
      </trkpt>
      <trkpt lat="44.68049" lon="6.80133">
        <ele>2008.9</ele>
        <time>2021-03-15T09:36:47Z</time>
      </trkpt>
      <trkpt lat="44.68058" lon="6.80139">
        <ele>2012.2</ele>
        <time>2021-03-15T09:37:18Z</time>
      </trkpt>
      <trkpt lat="44.68067" lon="6.80147">
        <ele>2015.3</ele>
        <time>2021-03-15T09:37:48Z</time>
      </trkpt>
      <trkpt lat="44.68076" lon="6.80158">
        <ele>2017.9</ele>
        <time>2021-03-15T09:38:18Z</time>
      </trkpt>
      <trkpt lat="44.68086" lon="6.80165">
        <ele>2021.5</ele>
        <time>2021-03-15T09:38:49Z</time>
      </trkpt>
      <trkpt lat="44.68097" lon="6.80177">
        <ele>2022.7</ele>
        <time>2021-03-15T09:39:20Z</time>
      </trkpt>
      <trkpt lat="44.68106" lon="6.80184">
        <ele>2024.4</ele>
        <time>2021-03-15T09:39:50Z</time>
      </trkpt>
      <trkpt lat="44.68121" lon="6.80189">
        <ele>2029.9</ele>
        <time>2021-03-15T09:40:20Z</time>
      </trkpt>
      <trkpt lat="44.6812" lon="6.8018">
        <ele>2032.6</ele>
        <time>2021-03-15T09:40:50Z</time>
      </trkpt>
      <trkpt lat="44.68118" lon="6.80167">
        <ele>2036.1</ele>
        <time>2021-03-15T09:41:21Z</time>
      </trkpt>
      <trkpt lat="44.68114" lon="6.80145">
        <ele>2038.2</ele>
        <time>2021-03-15T09:41:52Z</time>
      </trkpt>
      <trkpt lat="44.6811" lon="6.80129">
        <ele>2038.9</ele>
        <time>2021-03-15T09:42:23Z</time>
      </trkpt>
      <trkpt lat="44.68114" lon="6.80117">
        <ele>2043.1</ele>
        <time>2021-03-15T09:42:54Z</time>
      </trkpt>
      <trkpt lat="44.68129" lon="6.80131">
        <ele>2048.4</ele>
        <time>2021-03-15T09:43:24Z</time>
      </trkpt>
      <trkpt lat="44.68131" lon="6.80134">
        <ele>2048.9</ele>
        <time>2021-03-15T09:43:55Z</time>
      </trkpt>
      <trkpt lat="44.68131" lon="6.80134">
        <ele>2048.9</ele>
        <time>2021-03-15T09:44:26Z</time>
      </trkpt>
      <trkpt lat="44.68131" lon="6.80134">
        <ele>2048.9</ele>
        <time>2021-03-15T09:44:56Z</time>
      </trkpt>
      <trkpt lat="44.68131" lon="6.80134">
        <ele>2048.9</ele>
        <time>2021-03-15T09:45:27Z</time>
      </trkpt>
      <trkpt lat="44.68131" lon="6.80132">
        <ele>2049.3</ele>
        <time>2021-03-15T09:45:57Z</time>
      </trkpt>
      <trkpt lat="44.68125" lon="6.8011">
        <ele>2050.4</ele>
        <time>2021-03-15T09:46:27Z</time>
      </trkpt>
      <trkpt lat="44.68136" lon="6.80119">
        <ele>2054.6</ele>
        <time>2021-03-15T09:46:58Z</time>
      </trkpt>
      <trkpt lat="44.68149" lon="6.80126">
        <ele>2059.9</ele>
        <time>2021-03-15T09:47:29Z</time>
      </trkpt>
      <trkpt lat="44.68163" lon="6.80141">
        <ele>2063.6</ele>
        <time>2021-03-15T09:48:00Z</time>
      </trkpt>
      <trkpt lat="44.68175" lon="6.80152">
        <ele>2066.6</ele>
        <time>2021-03-15T09:48:30Z</time>
      </trkpt>
      <trkpt lat="44.68185" lon="6.80166">
        <ele>2067.5</ele>
        <time>2021-03-15T09:49:01Z</time>
      </trkpt>
      <trkpt lat="44.68198" lon="6.80175">
        <ele>2071.1</ele>
        <time>2021-03-15T09:49:31Z</time>
      </trkpt>
      <trkpt lat="44.68209" lon="6.80186">
        <ele>2073.5</ele>
        <time>2021-03-15T09:50:01Z</time>
      </trkpt>
      <trkpt lat="44.68221" lon="6.80197">
        <ele>2076.7</ele>
        <time>2021-03-15T09:50:31Z</time>
      </trkpt>
      <trkpt lat="44.68233" lon="6.80207">
        <ele>2080.5</ele>
        <time>2021-03-15T09:51:02Z</time>
      </trkpt>
      <trkpt lat="44.68241" lon="6.80219">
        <ele>2082.2</ele>
        <time>2021-03-15T09:51:32Z</time>
      </trkpt>
      <trkpt lat="44.68248" lon="6.80234">
        <ele>2083</ele>
        <time>2021-03-15T09:52:02Z</time>
      </trkpt>
      <trkpt lat="44.68262" lon="6.80249">
        <ele>2086.5</ele>
        <time>2021-03-15T09:52:33Z</time>
      </trkpt>
      <trkpt lat="44.68275" lon="6.80259">
        <ele>2089.8</ele>
        <time>2021-03-15T09:53:03Z</time>
      </trkpt>
      <trkpt lat="44.68291" lon="6.80268">
        <ele>2094.7</ele>
        <time>2021-03-15T09:53:34Z</time>
      </trkpt>
      <trkpt lat="44.68304" lon="6.80278">
        <ele>2098</ele>
        <time>2021-03-15T09:54:05Z</time>
      </trkpt>
      <trkpt lat="44.68314" lon="6.80292">
        <ele>2099.1</ele>
        <time>2021-03-15T09:54:35Z</time>
      </trkpt>
      <trkpt lat="44.68325" lon="6.80301">
        <ele>2101.9</ele>
        <time>2021-03-15T09:55:06Z</time>
      </trkpt>
      <trkpt lat="44.68338" lon="6.80314">
        <ele>2104.5</ele>
        <time>2021-03-15T09:55:37Z</time>
      </trkpt>
      <trkpt lat="44.68349" lon="6.80326">
        <ele>2106</ele>
        <time>2021-03-15T09:56:08Z</time>
      </trkpt>
      <trkpt lat="44.68363" lon="6.80334">
        <ele>2109.6</ele>
        <time>2021-03-15T09:56:38Z</time>
      </trkpt>
      <trkpt lat="44.68373" lon="6.80347">
        <ele>2109.9</ele>
        <time>2021-03-15T09:57:09Z</time>
      </trkpt>
      <trkpt lat="44.68385" lon="6.80359">
        <ele>2111.4</ele>
        <time>2021-03-15T09:57:40Z</time>
      </trkpt>
      <trkpt lat="44.68398" lon="6.80369">
        <ele>2114</ele>
        <time>2021-03-15T09:58:10Z</time>
      </trkpt>
      <trkpt lat="44.6841" lon="6.80378">
        <ele>2116.5</ele>
        <time>2021-03-15T09:58:40Z</time>
      </trkpt>
      <trkpt lat="44.68418" lon="6.80388">
        <ele>2117.1</ele>
        <time>2021-03-15T09:59:11Z</time>
      </trkpt>
      <trkpt lat="44.68434" lon="6.80395">
        <ele>2121.8</ele>
        <time>2021-03-15T09:59:42Z</time>
      </trkpt>
      <trkpt lat="44.68447" lon="6.80406">
        <ele>2124</ele>
        <time>2021-03-15T10:00:13Z</time>
      </trkpt>
      <trkpt lat="44.68452" lon="6.80395">
        <ele>2129.2</ele>
        <time>2021-03-15T10:00:46Z</time>
      </trkpt>
      <trkpt lat="44.68445" lon="6.80376">
        <ele>2131.6</ele>
        <time>2021-03-15T10:01:16Z</time>
      </trkpt>
      <trkpt lat="44.68442" lon="6.80362">
        <ele>2134.3</ele>
        <time>2021-03-15T10:01:47Z</time>
      </trkpt>
      <trkpt lat="44.68458" lon="6.80379">
        <ele>2136.2</ele>
        <time>2021-03-15T10:02:18Z</time>
      </trkpt>
      <trkpt lat="44.6847" lon="6.80395">
        <ele>2136.5</ele>
        <time>2021-03-15T10:02:49Z</time>
      </trkpt>
      <trkpt lat="44.68488" lon="6.80401">
        <ele>2142</ele>
        <time>2021-03-15T10:03:20Z</time>
      </trkpt>
      <trkpt lat="44.68504" lon="6.8041">
        <ele>2145.8</ele>
        <time>2021-03-15T10:03:50Z</time>
      </trkpt>
      <trkpt lat="44.6852" lon="6.80419">
        <ele>2150.4</ele>
        <time>2021-03-15T10:04:21Z</time>
      </trkpt>
      <trkpt lat="44.68533" lon="6.80429">
        <ele>2154.4</ele>
        <time>2021-03-15T10:04:51Z</time>
      </trkpt>
      <trkpt lat="44.68541" lon="6.8045">
        <ele>2154.2</ele>
        <time>2021-03-15T10:05:22Z</time>
      </trkpt>
      <trkpt lat="44.68552" lon="6.8046">
        <ele>2157.4</ele>
        <time>2021-03-15T10:05:52Z</time>
      </trkpt>
      <trkpt lat="44.68567" lon="6.8047">
        <ele>2162.5</ele>
        <time>2021-03-15T10:06:22Z</time>
      </trkpt>
      <trkpt lat="44.68576" lon="6.80483">
        <ele>2164.5</ele>
        <time>2021-03-15T10:06:52Z</time>
      </trkpt>
      <trkpt lat="44.68585" lon="6.805">
        <ele>2165.8</ele>
        <time>2021-03-15T10:07:23Z</time>
      </trkpt>
      <trkpt lat="44.68594" lon="6.80513">
        <ele>2169.1</ele>
        <time>2021-03-15T10:07:53Z</time>
      </trkpt>
      <trkpt lat="44.68606" lon="6.80525">
        <ele>2173.8</ele>
        <time>2021-03-15T10:08:24Z</time>
      </trkpt>
      <trkpt lat="44.68614" lon="6.80532">
        <ele>2177</ele>
        <time>2021-03-15T10:08:58Z</time>
      </trkpt>
      <trkpt lat="44.6863" lon="6.80542">
        <ele>2183.5</ele>
        <time>2021-03-15T10:09:28Z</time>
      </trkpt>
      <trkpt lat="44.68642" lon="6.80544">
        <ele>2188.9</ele>
        <time>2021-03-15T10:09:59Z</time>
      </trkpt>
      <trkpt lat="44.68646" lon="6.80555">
        <ele>2189.6</ele>
        <time>2021-03-15T10:10:46Z</time>
      </trkpt>
      <trkpt lat="44.68655" lon="6.80564">
        <ele>2192.8</ele>
        <time>2021-03-15T10:13:10Z</time>
      </trkpt>
      <trkpt lat="44.68667" lon="6.80582">
        <ele>2196.3</ele>
        <time>2021-03-15T10:13:41Z</time>
      </trkpt>
      <trkpt lat="44.68673" lon="6.80593">
        <ele>2199.3</ele>
        <time>2021-03-15T10:14:12Z</time>
      </trkpt>
      <trkpt lat="44.68677" lon="6.80605">
        <ele>2201.7</ele>
        <time>2021-03-15T10:15:00Z</time>
      </trkpt>
      <trkpt lat="44.68684" lon="6.80628">
        <ele>2205.7</ele>
        <time>2021-03-15T10:15:30Z</time>
      </trkpt>
      <trkpt lat="44.68691" lon="6.80641">
        <ele>2209.3</ele>
        <time>2021-03-15T10:16:12Z</time>
      </trkpt>
      <trkpt lat="44.68699" lon="6.80654">
        <ele>2213.1</ele>
        <time>2021-03-15T10:16:42Z</time>
      </trkpt>
      <trkpt lat="44.68705" lon="6.80644">
        <ele>2215.4</ele>
        <time>2021-03-15T10:17:34Z</time>
      </trkpt>
      <trkpt lat="44.68712" lon="6.80653">
        <ele>2218.7</ele>
        <time>2021-03-15T10:18:05Z</time>
      </trkpt>
      <trkpt lat="44.68719" lon="6.80641">
        <ele>2221.3</ele>
        <time>2021-03-15T10:18:36Z</time>
      </trkpt>
      <trkpt lat="44.68725" lon="6.80652">
        <ele>2224.2</ele>
        <time>2021-03-15T10:19:06Z</time>
      </trkpt>
      <trkpt lat="44.68732" lon="6.80643">
        <ele>2227</ele>
        <time>2021-03-15T10:19:38Z</time>
      </trkpt>
      <trkpt lat="44.68732" lon="6.80622">
        <ele>2226.6</ele>
        <time>2021-03-15T10:20:09Z</time>
      </trkpt>
      <trkpt lat="44.68736" lon="6.80605">
        <ele>2228</ele>
        <time>2021-03-15T10:20:39Z</time>
      </trkpt>
      <trkpt lat="44.68744" lon="6.8061">
        <ele>2231.7</ele>
        <time>2021-03-15T10:23:24Z</time>
      </trkpt>
      <trkpt lat="44.68749" lon="6.80622">
        <ele>2234</ele>
        <time>2021-03-15T10:23:57Z</time>
      </trkpt>
      <trkpt lat="44.68757" lon="6.80629">
        <ele>2237.7</ele>
        <time>2021-03-15T10:24:28Z</time>
      </trkpt>
      <trkpt lat="44.6877" lon="6.80641">
        <ele>2243.6</ele>
        <time>2021-03-15T10:24:58Z</time>
      </trkpt>
      <trkpt lat="44.68778" lon="6.80652">
        <ele>2247.3</ele>
        <time>2021-03-15T10:25:28Z</time>
      </trkpt>
      <trkpt lat="44.68788" lon="6.80664">
        <ele>2251.9</ele>
        <time>2021-03-15T10:25:59Z</time>
      </trkpt>
      <trkpt lat="44.68796" lon="6.80671">
        <ele>2255.8</ele>
        <time>2021-03-15T10:26:29Z</time>
      </trkpt>
      <trkpt lat="44.68793" lon="6.80658">
        <ele>2254</ele>
        <time>2021-03-15T10:26:59Z</time>
      </trkpt>
      <trkpt lat="44.68793" lon="6.80635">
        <ele>2253.9</ele>
        <time>2021-03-15T10:27:30Z</time>
      </trkpt>
      <trkpt lat="44.6879" lon="6.80613">
        <ele>2252.4</ele>
        <time>2021-03-15T10:28:01Z</time>
      </trkpt>
      <trkpt lat="44.68796" lon="6.80596">
        <ele>2255</ele>
        <time>2021-03-15T10:28:31Z</time>
      </trkpt>
      <trkpt lat="44.68805" lon="6.80602">
        <ele>2259.2</ele>
        <time>2021-03-15T10:29:02Z</time>
      </trkpt>
      <trkpt lat="44.68812" lon="6.80583">
        <ele>2262.3</ele>
        <time>2021-03-15T10:29:33Z</time>
      </trkpt>
      <trkpt lat="44.68818" lon="6.80593">
        <ele>2265</ele>
        <time>2021-03-15T10:30:15Z</time>
      </trkpt>
      <trkpt lat="44.68827" lon="6.80605">
        <ele>2269.1</ele>
        <time>2021-03-15T10:30:46Z</time>
      </trkpt>
      <trkpt lat="44.68841" lon="6.80616">
        <ele>2274.2</ele>
        <time>2021-03-15T10:31:17Z</time>
      </trkpt>
      <trkpt lat="44.68851" lon="6.8062">
        <ele>2277.2</ele>
        <time>2021-03-15T10:31:51Z</time>
      </trkpt>
      <trkpt lat="44.6886" lon="6.80608">
        <ele>2279.6</ele>
        <time>2021-03-15T10:32:22Z</time>
      </trkpt>
      <trkpt lat="44.68869" lon="6.80599">
        <ele>2282.1</ele>
        <time>2021-03-15T10:32:53Z</time>
      </trkpt>
      <trkpt lat="44.68878" lon="6.80596">
        <ele>2284.6</ele>
        <time>2021-03-15T10:33:23Z</time>
      </trkpt>
      <trkpt lat="44.68886" lon="6.806">
        <ele>2286.9</ele>
        <time>2021-03-15T10:34:57Z</time>
      </trkpt>
      <trkpt lat="44.68877" lon="6.80601">
        <ele>2284.4</ele>
        <time>2021-03-15T10:35:55Z</time>
      </trkpt>
      <trkpt lat="44.68859" lon="6.80605">
        <ele>2279.3</ele>
        <time>2021-03-15T10:36:26Z</time>
      </trkpt>
      <trkpt lat="44.68854" lon="6.80617">
        <ele>2278</ele>
        <time>2021-03-15T10:36:57Z</time>
      </trkpt>
      <trkpt lat="44.68862" lon="6.80606">
        <ele>2280.2</ele>
        <time>2021-03-15T10:39:18Z</time>
      </trkpt>
      <trkpt lat="44.68871" lon="6.80596">
        <ele>2282.6</ele>
        <time>2021-03-15T10:39:48Z</time>
      </trkpt>
      <trkpt lat="44.6888" lon="6.80596">
        <ele>2285.1</ele>
        <time>2021-03-15T10:41:08Z</time>
      </trkpt>
      <trkpt lat="44.68889" lon="6.80598">
        <ele>2287.7</ele>
        <time>2021-03-15T10:42:38Z</time>
      </trkpt>
      <trkpt lat="44.68908" lon="6.80601">
        <ele>2293.2</ele>
        <time>2021-03-15T10:43:09Z</time>
      </trkpt>
      <trkpt lat="44.68924" lon="6.80595">
        <ele>2294.9</ele>
        <time>2021-03-15T10:43:39Z</time>
      </trkpt>
      <trkpt lat="44.68933" lon="6.80597">
        <ele>2294.5</ele>
        <time>2021-03-15T10:44:11Z</time>
      </trkpt>
      <trkpt lat="44.68948" lon="6.80604">
        <ele>2294.4</ele>
        <time>2021-03-15T10:44:41Z</time>
      </trkpt>
      <trkpt lat="44.68958" lon="6.80605">
        <ele>2294.1</ele>
        <time>2021-03-15T10:45:11Z</time>
      </trkpt>
      <trkpt lat="44.68967" lon="6.80606">
        <ele>2293.9</ele>
        <time>2021-03-15T10:46:45Z</time>
      </trkpt>
      <trkpt lat="44.68963" lon="6.80619">
        <ele>2296.1</ele>
        <time>2021-03-15T10:54:57Z</time>
      </trkpt>
      <trkpt lat="44.68959" lon="6.80639">
        <ele>2299</ele>
        <time>2021-03-15T10:55:27Z</time>
      </trkpt>
      <trkpt lat="44.68955" lon="6.8065">
        <ele>2300.3</ele>
        <time>2021-03-15T10:55:58Z</time>
      </trkpt>
      <trkpt lat="44.68954" lon="6.80665">
        <ele>2302.3</ele>
        <time>2021-03-15T10:56:29Z</time>
      </trkpt>
      <trkpt lat="44.68954" lon="6.80678">
        <ele>2305.8</ele>
        <time>2021-03-15T10:57:03Z</time>
      </trkpt>
      <trkpt lat="44.68951" lon="6.80691">
        <ele>2309.2</ele>
        <time>2021-03-15T10:58:09Z</time>
      </trkpt>
      <trkpt lat="44.68942" lon="6.80685">
        <ele>2306.2</ele>
        <time>2021-03-15T11:04:47Z</time>
      </trkpt>
      <trkpt lat="44.68949" lon="6.80676">
        <ele>2304.6</ele>
        <time>2021-03-15T11:29:11Z</time>
      </trkpt>
      <trkpt lat="44.68945" lon="6.80688">
        <ele>2307.5</ele>
        <time>2021-03-15T11:34:35Z</time>
      </trkpt>
      <trkpt lat="44.68952" lon="6.8068">
        <ele>2306.1</ele>
        <time>2021-03-15T11:37:35Z</time>
      </trkpt>
      <trkpt lat="44.68959" lon="6.80656">
        <ele>2301.5</ele>
        <time>2021-03-15T11:38:06Z</time>
      </trkpt>
      <trkpt lat="44.68964" lon="6.80626">
        <ele>2297.2</ele>
        <time>2021-03-15T11:38:37Z</time>
      </trkpt>
      <trkpt lat="44.68964" lon="6.80605">
        <ele>2293.9</ele>
        <time>2021-03-15T11:39:07Z</time>
      </trkpt>
      <trkpt lat="44.68953" lon="6.80605">
        <ele>2294.3</ele>
        <time>2021-03-15T11:39:38Z</time>
      </trkpt>
      <trkpt lat="44.68935" lon="6.80599">
        <ele>2294.5</ele>
        <time>2021-03-15T11:40:08Z</time>
      </trkpt>
      <trkpt lat="44.68912" lon="6.806">
        <ele>2294.3</ele>
        <time>2021-03-15T11:40:39Z</time>
      </trkpt>
      <trkpt lat="44.68902" lon="6.80599">
        <ele>2291.4</ele>
        <time>2021-03-15T11:41:10Z</time>
      </trkpt>
      <trkpt lat="44.68892" lon="6.806">
        <ele>2288.6</ele>
        <time>2021-03-15T11:44:41Z</time>
      </trkpt>
      <trkpt lat="44.68883" lon="6.806">
        <ele>2286.1</ele>
        <time>2021-03-15T11:45:11Z</time>
      </trkpt>
      <trkpt lat="44.68872" lon="6.80598">
        <ele>2282.9</ele>
        <time>2021-03-15T11:45:41Z</time>
      </trkpt>
      <trkpt lat="44.68861" lon="6.80609">
        <ele>2279.9</ele>
        <time>2021-03-15T11:46:12Z</time>
      </trkpt>
      <trkpt lat="44.68854" lon="6.80623">
        <ele>2278.1</ele>
        <time>2021-03-15T11:46:42Z</time>
      </trkpt>
      <trkpt lat="44.68836" lon="6.8062">
        <ele>2272.8</ele>
        <time>2021-03-15T11:47:13Z</time>
      </trkpt>
      <trkpt lat="44.68827" lon="6.80609">
        <ele>2269.1</ele>
        <time>2021-03-15T11:47:44Z</time>
      </trkpt>
      <trkpt lat="44.68819" lon="6.80592">
        <ele>2265.5</ele>
        <time>2021-03-15T11:48:14Z</time>
      </trkpt>
      <trkpt lat="44.6881" lon="6.80586">
        <ele>2261.4</ele>
        <time>2021-03-15T11:48:45Z</time>
      </trkpt>
      <trkpt lat="44.688" lon="6.80602">
        <ele>2256.9</ele>
        <time>2021-03-15T11:49:16Z</time>
      </trkpt>
      <trkpt lat="44.68794" lon="6.80612">
        <ele>2254.2</ele>
        <time>2021-03-15T11:49:49Z</time>
      </trkpt>
      <trkpt lat="44.68794" lon="6.80646">
        <ele>2254.4</ele>
        <time>2021-03-15T11:50:19Z</time>
      </trkpt>
      <trkpt lat="44.68797" lon="6.80667">
        <ele>2255.9</ele>
        <time>2021-03-15T11:50:50Z</time>
      </trkpt>
      <trkpt lat="44.68788" lon="6.80667">
        <ele>2251.9</ele>
        <time>2021-03-15T11:51:27Z</time>
      </trkpt>
      <trkpt lat="44.6877" lon="6.80652">
        <ele>2243.7</ele>
        <time>2021-03-15T11:51:58Z</time>
      </trkpt>
      <trkpt lat="44.68763" lon="6.80636">
        <ele>2240.5</ele>
        <time>2021-03-15T11:52:29Z</time>
      </trkpt>
      <trkpt lat="44.68754" lon="6.80627">
        <ele>2236.3</ele>
        <time>2021-03-15T11:53:04Z</time>
      </trkpt>
      <trkpt lat="44.68743" lon="6.80605">
        <ele>2231.1</ele>
        <time>2021-03-15T11:53:34Z</time>
      </trkpt>
      <trkpt lat="44.68733" lon="6.80602">
        <ele>2226.6</ele>
        <time>2021-03-15T11:54:05Z</time>
      </trkpt>
      <trkpt lat="44.68728" lon="6.80628">
        <ele>2224.9</ele>
        <time>2021-03-15T11:54:36Z</time>
      </trkpt>
      <trkpt lat="44.68729" lon="6.80641">
        <ele>2225.6</ele>
        <time>2021-03-15T11:55:19Z</time>
      </trkpt>
      <trkpt lat="44.68717" lon="6.80646">
        <ele>2220.6</ele>
        <time>2021-03-15T11:55:49Z</time>
      </trkpt>
      <trkpt lat="44.68713" lon="6.80658">
        <ele>2219.2</ele>
        <time>2021-03-15T11:56:24Z</time>
      </trkpt>
      <trkpt lat="44.68703" lon="6.80653">
        <ele>2214.8</ele>
        <time>2021-03-15T11:56:55Z</time>
      </trkpt>
      <trkpt lat="44.68694" lon="6.80654">
        <ele>2211</ele>
        <time>2021-03-15T11:57:37Z</time>
      </trkpt>
      <trkpt lat="44.68685" lon="6.80634">
        <ele>2206.4</ele>
        <time>2021-03-15T11:58:08Z</time>
      </trkpt>
      <trkpt lat="44.68677" lon="6.80609">
        <ele>2201.8</ele>
        <time>2021-03-15T11:58:38Z</time>
      </trkpt>
      <trkpt lat="44.68667" lon="6.80584">
        <ele>2196.2</ele>
        <time>2021-03-15T11:59:09Z</time>
      </trkpt>
      <trkpt lat="44.68655" lon="6.80565">
        <ele>2192.7</ele>
        <time>2021-03-15T11:59:40Z</time>
      </trkpt>
      <trkpt lat="44.6864" lon="6.80541">
        <ele>2188.2</ele>
        <time>2021-03-15T12:00:11Z</time>
      </trkpt>
      <trkpt lat="44.6862" lon="6.80536">
        <ele>2179.4</ele>
        <time>2021-03-15T12:00:41Z</time>
      </trkpt>
      <trkpt lat="44.6861" lon="6.80521">
        <ele>2176</ele>
        <time>2021-03-15T12:01:11Z</time>
      </trkpt>
      <trkpt lat="44.68594" lon="6.80505">
        <ele>2169.7</ele>
        <time>2021-03-15T12:01:42Z</time>
      </trkpt>
      <trkpt lat="44.68574" lon="6.8048">
        <ele>2164</ele>
        <time>2021-03-15T12:02:12Z</time>
      </trkpt>
      <trkpt lat="44.68555" lon="6.80461">
        <ele>2158.6</ele>
        <time>2021-03-15T12:02:43Z</time>
      </trkpt>
      <trkpt lat="44.68534" lon="6.80442">
        <ele>2152.5</ele>
        <time>2021-03-15T12:03:14Z</time>
      </trkpt>
      <trkpt lat="44.68517" lon="6.80418">
        <ele>2149.3</ele>
        <time>2021-03-15T12:03:45Z</time>
      </trkpt>
      <trkpt lat="44.68501" lon="6.80407">
        <ele>2145.5</ele>
        <time>2021-03-15T12:04:16Z</time>
      </trkpt>
      <trkpt lat="44.68493" lon="6.804">
        <ele>2144.4</ele>
        <time>2021-03-15T12:04:52Z</time>
      </trkpt>
      <trkpt lat="44.68468" lon="6.80395">
        <ele>2135.7</ele>
        <time>2021-03-15T12:05:23Z</time>
      </trkpt>
      <trkpt lat="44.68454" lon="6.80373">
        <ele>2136.3</ele>
        <time>2021-03-15T12:05:53Z</time>
      </trkpt>
      <trkpt lat="44.68442" lon="6.80373">
        <ele>2131.2</ele>
        <time>2021-03-15T12:06:24Z</time>
      </trkpt>
      <trkpt lat="44.68453" lon="6.80404">
        <ele>2127</ele>
        <time>2021-03-15T12:06:55Z</time>
      </trkpt>
      <trkpt lat="44.68444" lon="6.80403">
        <ele>2123.6</ele>
        <time>2021-03-15T12:07:26Z</time>
      </trkpt>
      <trkpt lat="44.68423" lon="6.80393">
        <ele>2117.8</ele>
        <time>2021-03-15T12:07:56Z</time>
      </trkpt>
      <trkpt lat="44.68406" lon="6.80376">
        <ele>2115.4</ele>
        <time>2021-03-15T12:08:27Z</time>
      </trkpt>
      <trkpt lat="44.68381" lon="6.80356">
        <ele>2110.7</ele>
        <time>2021-03-15T12:08:58Z</time>
      </trkpt>
      <trkpt lat="44.68363" lon="6.80339">
        <ele>2108.2</ele>
        <time>2021-03-15T12:09:29Z</time>
      </trkpt>
      <trkpt lat="44.68354" lon="6.80332">
        <ele>2106.5</ele>
        <time>2021-03-15T12:09:59Z</time>
      </trkpt>
      <trkpt lat="44.68332" lon="6.80312">
        <ele>2102.5</ele>
        <time>2021-03-15T12:10:30Z</time>
      </trkpt>
      <trkpt lat="44.6834" lon="6.8032">
        <ele>2103.9</ele>
        <time>2021-03-15T12:11:01Z</time>
      </trkpt>
      <trkpt lat="44.68333" lon="6.80312">
        <ele>2103</ele>
        <time>2021-03-15T12:14:30Z</time>
      </trkpt>
      <trkpt lat="44.68326" lon="6.80303">
        <ele>2101.9</ele>
        <time>2021-03-15T12:15:08Z</time>
      </trkpt>
      <trkpt lat="44.68302" lon="6.80282">
        <ele>2096.1</ele>
        <time>2021-03-15T12:15:39Z</time>
      </trkpt>
      <trkpt lat="44.68279" lon="6.80265">
        <ele>2090</ele>
        <time>2021-03-15T12:16:09Z</time>
      </trkpt>
      <trkpt lat="44.68266" lon="6.80259">
        <ele>2085.8</ele>
        <time>2021-03-15T12:16:40Z</time>
      </trkpt>
      <trkpt lat="44.68247" lon="6.80234">
        <ele>2082.4</ele>
        <time>2021-03-15T12:17:11Z</time>
      </trkpt>
      <trkpt lat="44.6824" lon="6.80211">
        <ele>2083.3</ele>
        <time>2021-03-15T12:17:41Z</time>
      </trkpt>
      <trkpt lat="44.68233" lon="6.80203">
        <ele>2081.4</ele>
        <time>2021-03-15T12:25:55Z</time>
      </trkpt>
      <trkpt lat="44.68206" lon="6.80184">
        <ele>2072.5</ele>
        <time>2021-03-15T12:26:26Z</time>
      </trkpt>
      <trkpt lat="44.68179" lon="6.80164">
        <ele>2065.3</ele>
        <time>2021-03-15T12:26:57Z</time>
      </trkpt>
      <trkpt lat="44.68155" lon="6.8014">
        <ele>2059.8</ele>
        <time>2021-03-15T12:27:28Z</time>
      </trkpt>
      <trkpt lat="44.68133" lon="6.80114">
        <ele>2054</ele>
        <time>2021-03-15T12:27:59Z</time>
      </trkpt>
      <trkpt lat="44.68131" lon="6.80139">
        <ele>2047.9</ele>
        <time>2021-03-15T12:28:30Z</time>
      </trkpt>
      <trkpt lat="44.68109" lon="6.80117">
        <ele>2040.4</ele>
        <time>2021-03-15T12:29:01Z</time>
      </trkpt>
      <trkpt lat="44.68115" lon="6.80159">
        <ele>2036.2</ele>
        <time>2021-03-15T12:29:32Z</time>
      </trkpt>
      <trkpt lat="44.68123" lon="6.8019">
        <ele>2030.6</ele>
        <time>2021-03-15T12:30:02Z</time>
      </trkpt>
      <trkpt lat="44.68104" lon="6.80181">
        <ele>2024.6</ele>
        <time>2021-03-15T12:30:32Z</time>
      </trkpt>
      <trkpt lat="44.68084" lon="6.80165">
        <ele>2020.5</ele>
        <time>2021-03-15T12:31:03Z</time>
      </trkpt>
      <trkpt lat="44.68064" lon="6.80149">
        <ele>2013.6</ele>
        <time>2021-03-15T12:31:33Z</time>
      </trkpt>
      <trkpt lat="44.68044" lon="6.8013">
        <ele>2007</ele>
        <time>2021-03-15T12:32:04Z</time>
      </trkpt>
      <trkpt lat="44.68028" lon="6.80117">
        <ele>2001.2</ele>
        <time>2021-03-15T12:32:34Z</time>
      </trkpt>
      <trkpt lat="44.68011" lon="6.80112">
        <ele>1994</ele>
        <time>2021-03-15T12:33:05Z</time>
      </trkpt>
      <trkpt lat="44.67994" lon="6.80094">
        <ele>1987</ele>
        <time>2021-03-15T12:33:35Z</time>
      </trkpt>
      <trkpt lat="44.67973" lon="6.80073">
        <ele>1975.1</ele>
        <time>2021-03-15T12:34:06Z</time>
      </trkpt>
      <trkpt lat="44.67968" lon="6.80084">
        <ele>1971.2</ele>
        <time>2021-03-15T12:34:37Z</time>
      </trkpt>
      <trkpt lat="44.67962" lon="6.80075">
        <ele>1967.8</ele>
        <time>2021-03-15T12:35:19Z</time>
      </trkpt>
      <trkpt lat="44.67952" lon="6.80052">
        <ele>1962.6</ele>
        <time>2021-03-15T12:35:49Z</time>
      </trkpt>
      <trkpt lat="44.67946" lon="6.80075">
        <ele>1957.4</ele>
        <time>2021-03-15T12:36:20Z</time>
      </trkpt>
      <trkpt lat="44.67938" lon="6.8011">
        <ele>1948.7</ele>
        <time>2021-03-15T12:36:51Z</time>
      </trkpt>
      <trkpt lat="44.67932" lon="6.801">
        <ele>1946</ele>
        <time>2021-03-15T12:38:00Z</time>
      </trkpt>
      <trkpt lat="44.67925" lon="6.80072">
        <ele>1944</ele>
        <time>2021-03-15T12:38:30Z</time>
      </trkpt>
      <trkpt lat="44.67923" lon="6.80049">
        <ele>1943.8</ele>
        <time>2021-03-15T12:39:00Z</time>
      </trkpt>
      <trkpt lat="44.67919" lon="6.80031">
        <ele>1942</ele>
        <time>2021-03-15T12:39:30Z</time>
      </trkpt>
      <trkpt lat="44.67913" lon="6.80003">
        <ele>1939.1</ele>
        <time>2021-03-15T12:40:01Z</time>
      </trkpt>
      <trkpt lat="44.67907" lon="6.79968">
        <ele>1935.5</ele>
        <time>2021-03-15T12:40:32Z</time>
      </trkpt>
      <trkpt lat="44.67906" lon="6.79955">
        <ele>1935.1</ele>
        <time>2021-03-15T12:41:47Z</time>
      </trkpt>
      <trkpt lat="44.67898" lon="6.79918">
        <ele>1929.9</ele>
        <time>2021-03-15T12:42:18Z</time>
      </trkpt>
      <trkpt lat="44.67894" lon="6.7993">
        <ele>1926.6</ele>
        <time>2021-03-15T12:42:50Z</time>
      </trkpt>
      <trkpt lat="44.6788" lon="6.79906">
        <ele>1916.1</ele>
        <time>2021-03-15T12:43:20Z</time>
      </trkpt>
      <trkpt lat="44.67876" lon="6.79864">
        <ele>1912.6</ele>
        <time>2021-03-15T12:43:50Z</time>
      </trkpt>
      <trkpt lat="44.67867" lon="6.79825">
        <ele>1906</ele>
        <time>2021-03-15T12:44:21Z</time>
      </trkpt>
      <trkpt lat="44.67859" lon="6.79787">
        <ele>1901.4</ele>
        <time>2021-03-15T12:44:52Z</time>
      </trkpt>
      <trkpt lat="44.67841" lon="6.79756">
        <ele>1891.3</ele>
        <time>2021-03-15T12:45:23Z</time>
      </trkpt>
      <trkpt lat="44.67831" lon="6.79744">
        <ele>1886.8</ele>
        <time>2021-03-15T12:45:53Z</time>
      </trkpt>
      <trkpt lat="44.67821" lon="6.79734">
        <ele>1884.2</ele>
        <time>2021-03-15T12:46:24Z</time>
      </trkpt>
      <trkpt lat="44.67814" lon="6.79755">
        <ele>1879.7</ele>
        <time>2021-03-15T12:46:55Z</time>
      </trkpt>
      <trkpt lat="44.67791" lon="6.79746">
        <ele>1872.1</ele>
        <time>2021-03-15T12:47:25Z</time>
      </trkpt>
      <trkpt lat="44.67769" lon="6.7972">
        <ele>1866.5</ele>
        <time>2021-03-15T12:47:55Z</time>
      </trkpt>
      <trkpt lat="44.67746" lon="6.79689">
        <ele>1860.8</ele>
        <time>2021-03-15T12:48:25Z</time>
      </trkpt>
      <trkpt lat="44.67724" lon="6.79668">
        <ele>1854.9</ele>
        <time>2021-03-15T12:48:55Z</time>
      </trkpt>
      <trkpt lat="44.67703" lon="6.79638">
        <ele>1848.1</ele>
        <time>2021-03-15T12:49:25Z</time>
      </trkpt>
      <trkpt lat="44.67686" lon="6.79609">
        <ele>1842.6</ele>
        <time>2021-03-15T12:49:56Z</time>
      </trkpt>
      <trkpt lat="44.67669" lon="6.79604">
        <ele>1836.6</ele>
        <time>2021-03-15T12:50:27Z</time>
      </trkpt>
      <trkpt lat="44.67669" lon="6.79591">
        <ele>1836.7</ele>
        <time>2021-03-15T12:51:07Z</time>
      </trkpt>
      <trkpt lat="44.67661" lon="6.79585">
        <ele>1833.5</ele>
        <time>2021-03-15T12:56:20Z</time>
      </trkpt>
      <trkpt lat="44.67669" lon="6.79592">
        <ele>1836.7</ele>
        <time>2021-03-15T12:57:45Z</time>
      </trkpt>
      <trkpt lat="44.67662" lon="6.79582">
        <ele>1834</ele>
        <time>2021-03-15T13:01:44Z</time>
      </trkpt>
      <trkpt lat="44.67657" lon="6.79528">
        <ele>1831.7</ele>
        <time>2021-03-15T13:02:14Z</time>
      </trkpt>
      <trkpt lat="44.67642" lon="6.79476">
        <ele>1828.4</ele>
        <time>2021-03-15T13:02:44Z</time>
      </trkpt>
      <trkpt lat="44.67625" lon="6.79422">
        <ele>1827.1</ele>
        <time>2021-03-15T13:03:15Z</time>
      </trkpt>
      <trkpt lat="44.676" lon="6.79376">
        <ele>1821.9</ele>
        <time>2021-03-15T13:03:45Z</time>
      </trkpt>
      <trkpt lat="44.67577" lon="6.7933">
        <ele>1817.3</ele>
        <time>2021-03-15T13:04:16Z</time>
      </trkpt>
      <trkpt lat="44.67551" lon="6.79282">
        <ele>1815</ele>
        <time>2021-03-15T13:04:46Z</time>
      </trkpt>
      <trkpt lat="44.67537" lon="6.79234">
        <ele>1815</ele>
        <time>2021-03-15T13:05:16Z</time>
      </trkpt>
      <trkpt lat="44.67538" lon="6.79221">
        <ele>1816</ele>
        <time>2021-03-15T13:06:09Z</time>
      </trkpt>
      <trkpt lat="44.67546" lon="6.79156">
        <ele>1822.2</ele>
        <time>2021-03-15T13:06:40Z</time>
      </trkpt>
      <trkpt lat="44.6755" lon="6.79114">
        <ele>1825</ele>
        <time>2021-03-15T13:07:11Z</time>
      </trkpt>
      <trkpt lat="44.67543" lon="6.79068">
        <ele>1822.9</ele>
        <time>2021-03-15T13:07:41Z</time>
      </trkpt>
      <trkpt lat="44.67518" lon="6.79021">
        <ele>1812.5</ele>
        <time>2021-03-15T13:08:12Z</time>
      </trkpt>
      <trkpt lat="44.67531" lon="6.78972">
        <ele>1817.1</ele>
        <time>2021-03-15T13:08:42Z</time>
      </trkpt>
      <trkpt lat="44.67521" lon="6.78917">
        <ele>1811.1</ele>
        <time>2021-03-15T13:09:13Z</time>
      </trkpt>
      <trkpt lat="44.6749" lon="6.78891">
        <ele>1797.6</ele>
        <time>2021-03-15T13:09:44Z</time>
      </trkpt>
      <trkpt lat="44.67467" lon="6.78852">
        <ele>1788</ele>
        <time>2021-03-15T13:10:15Z</time>
      </trkpt>
      <trkpt lat="44.67467" lon="6.78797">
        <ele>1792.4</ele>
        <time>2021-03-15T13:10:46Z</time>
      </trkpt>
      <trkpt lat="44.6746" lon="6.78742">
        <ele>1794.7</ele>
        <time>2021-03-15T13:11:17Z</time>
      </trkpt>
      <trkpt lat="44.67433" lon="6.78709">
        <ele>1788.2</ele>
        <time>2021-03-15T13:11:47Z</time>
      </trkpt>
      <trkpt lat="44.67403" lon="6.78675">
        <ele>1780.1</ele>
        <time>2021-03-15T13:12:18Z</time>
      </trkpt>
      <trkpt lat="44.67372" lon="6.78642">
        <ele>1768</ele>
        <time>2021-03-15T13:12:49Z</time>
      </trkpt>
      <trkpt lat="44.67363" lon="6.78643">
        <ele>1763.2</ele>
        <time>2021-03-15T13:14:15Z</time>
      </trkpt>
      <trkpt lat="44.67365" lon="6.78607">
        <ele>1769</ele>
        <time>2021-03-15T13:14:46Z</time>
      </trkpt>
      <trkpt lat="44.67356" lon="6.7857">
        <ele>1769.2</ele>
        <time>2021-03-15T13:15:17Z</time>
      </trkpt>
      <trkpt lat="44.67346" lon="6.78571">
        <ele>1764.3</ele>
        <time>2021-03-15T13:15:48Z</time>
      </trkpt>
      <trkpt lat="44.67323" lon="6.78569">
        <ele>1753.3</ele>
        <time>2021-03-15T13:16:19Z</time>
      </trkpt>
      <trkpt lat="44.67311" lon="6.7856">
        <ele>1748.2</ele>
        <time>2021-03-15T13:16:50Z</time>
      </trkpt>
      <trkpt lat="44.67297" lon="6.78527">
        <ele>1743.8</ele>
        <time>2021-03-15T13:17:21Z</time>
      </trkpt>
      <trkpt lat="44.6728" lon="6.78491">
        <ele>1738.1</ele>
        <time>2021-03-15T13:17:52Z</time>
      </trkpt>
      <trkpt lat="44.6727" lon="6.78441">
        <ele>1740.3</ele>
        <time>2021-03-15T13:18:22Z</time>
      </trkpt>
      <trkpt lat="44.67246" lon="6.78412">
        <ele>1733.4</ele>
        <time>2021-03-15T13:18:53Z</time>
      </trkpt>
      <trkpt lat="44.67221" lon="6.78383">
        <ele>1728.8</ele>
        <time>2021-03-15T13:19:23Z</time>
      </trkpt>
      <trkpt lat="44.67206" lon="6.78377">
        <ele>1723.3</ele>
        <time>2021-03-15T13:19:54Z</time>
      </trkpt>
      <trkpt lat="44.67184" lon="6.7836">
        <ele>1716.5</ele>
        <time>2021-03-15T13:20:24Z</time>
      </trkpt>
      <trkpt lat="44.67163" lon="6.78331">
        <ele>1711.9</ele>
        <time>2021-03-15T13:20:54Z</time>
      </trkpt>
      <trkpt lat="44.67141" lon="6.78304">
        <ele>1706</ele>
        <time>2021-03-15T13:21:24Z</time>
      </trkpt>
      <trkpt lat="44.67143" lon="6.78317">
        <ele>1705.9</ele>
        <time>2021-03-15T13:22:15Z</time>
      </trkpt>
      <trkpt lat="44.67137" lon="6.78332">
        <ele>1702.8</ele>
        <time>2021-03-15T13:22:45Z</time>
      </trkpt>
      <trkpt lat="44.67113" lon="6.78293">
        <ele>1695.7</ele>
        <time>2021-03-15T13:23:16Z</time>
      </trkpt>
      <trkpt lat="44.67098" lon="6.78247">
        <ele>1690.4</ele>
        <time>2021-03-15T13:23:46Z</time>
      </trkpt>
      <trkpt lat="44.67087" lon="6.78213">
        <ele>1684.7</ele>
        <time>2021-03-15T13:24:17Z</time>
      </trkpt>
      <trkpt lat="44.6707" lon="6.78161">
        <ele>1680.7</ele>
        <time>2021-03-15T13:24:48Z</time>
      </trkpt>
      <trkpt lat="44.67061" lon="6.78138">
        <ele>1680.5</ele>
        <time>2021-03-15T13:25:18Z</time>
      </trkpt>
      <trkpt lat="44.67045" lon="6.78116">
        <ele>1678</ele>
        <time>2021-03-15T13:25:48Z</time>
      </trkpt>
      <trkpt lat="44.67029" lon="6.78086">
        <ele>1674.1</ele>
        <time>2021-03-15T13:26:19Z</time>
      </trkpt>
      <trkpt lat="44.67012" lon="6.78057">
        <ele>1668.6</ele>
        <time>2021-03-15T13:26:50Z</time>
      </trkpt>
      <trkpt lat="44.66995" lon="6.7803">
        <ele>1664.4</ele>
        <time>2021-03-15T13:27:20Z</time>
      </trkpt>
      <trkpt lat="44.6699" lon="6.78019">
        <ele>1664.1</ele>
        <time>2021-03-15T13:27:57Z</time>
      </trkpt>
      <trkpt lat="44.66966" lon="6.77978">
        <ele>1661.3</ele>
        <time>2021-03-15T13:28:27Z</time>
      </trkpt>
      <trkpt lat="44.66941" lon="6.77943">
        <ele>1657.1</ele>
        <time>2021-03-15T13:28:58Z</time>
      </trkpt>
      <trkpt lat="44.66938" lon="6.77931">
        <ele>1655.6</ele>
        <time>2021-03-15T13:30:19Z</time>
      </trkpt>
      <trkpt lat="44.66926" lon="6.77919">
        <ele>1653.2</ele>
        <time>2021-03-15T13:30:50Z</time>
      </trkpt>
    </trkseg>
  </trk>
</gpx>